Sideropolis, Brazil
Current Conditions -  °F | °C
As of 8:00 AM on Friday 24 Oct 2014 (Local Time) from SBCM Reporting Station
Moderate Fog Moderate Fog  
Wind Chill: 63°   Ceiling: Unl
Heat Index: 63°   Visibility: 0.31mi
Dew Point: 63°   Wind: 0mph
Humidity: 100%   Direction: NA
Pressure: 29.97"   Gusts: NA
Location:  28.6°S, 49.42°W
Report Text: SBCM 241000Z 00000KT 0500 FG SCT004 17/17 Q1015
Loading
Personal Weather Stations






























Interactive Weather Map
Tropical Storm Tracking
New forecast layout! Learn more

10-Day Weather Forecast

Advertisements
Track Severe Weather on mobile